Time;durP1;ratioP1;P1;durP2;ratioP2;P2;SDS_P1;SDS_P2;PMS_P1;PMS_P2;Temp;Humidity;BMP_temperature;BMP_pressure;BME280_temperature;BME280_humidity;BME280_pressure;Samples;Min_cycle;Max_cycle;Signal;HPM_P1;HPM_P2
2023/01/29 00:01:02;;;;;;;;;;;6.50;51.10;;;;;;4932879;29;19918;-93
2023/01/29 00:03:28;;;;;;;;;;;6.50;51.20;;;;;;4935938;29;19915;-90
2023/01/29 00:05:54;;;;;;;;;;;6.50;51.20;;;;;;4951146;29;19918;-89
2023/01/29 00:08:20;;;;;;;;;;;6.60;51.00;;;;;;4934325;29;19921;-90
2023/01/29 00:10:46;;;;;;;;;;;6.60;51.00;;;;;;4932554;29;19918;-90
2023/01/29 00:13:12;;;;;;;;;;;6.60;51.00;;;;;;4950767;29;20008;-90
2023/01/29 00:15:37;;;;;;;;;;;6.60;50.80;;;;;;4934749;29;20347;-89
2023/01/29 00:18:03;;;;;;;;;;;6.60;50.80;;;;;;4933896;29;20013;-89
2023/01/29 00:20:29;;;;;;;;;;;6.60;50.80;;;;;;4951674;29;19911;-89
2023/01/29 00:22:55;;;;;;;;;;;6.60;50.70;;;;;;4934291;29;20342;-91
2023/01/29 00:25:21;;;;;;;;;;;6.70;50.70;;;;;;4934486;29;19910;-90
2023/01/29 00:27:46;;;;;;;;;;;6.70;50.70;;;;;;4951334;29;19926;-90
2023/01/29 00:30:12;;;;;;;;;;;6.70;50.60;;;;;;4951615;29;19914;-89
2023/01/29 00:32:38;;;;;;;;;;;6.70;50.70;;;;;;4951487;29;19922;-88
2023/01/29 00:35:04;;;;;;;;;;;6.70;50.50;;;;;;4934489;29;19911;-89
2023/01/29 00:37:30;;;;;;;;;;;6.70;50.40;;;;;;4933841;29;19933;-89
2023/01/29 00:39:55;;;;;;;;;;;6.70;50.50;;;;;;4951414;28;19929;-90
2023/01/29 00:45:06;;;;;;;;;;;6.70;50.40;;;;;;4951767;29;19964;-90
2023/01/29 00:47:35;;;;;;;;;;;6.70;50.40;;;;;;4933958;29;19965;-89
2023/01/29 00:50:01;;;;;;;;;;;6.80;50.40;;;;;;4934287;29;20300;-89
2023/01/29 00:52:27;;;;;;;;;;;6.80;50.40;;;;;;4933899;29;19929;-88
2023/01/29 00:54:53;;;;;;;;;;;6.80;50.40;;;;;;4917446;29;20001;-89
2023/01/29 00:57:18;;;;;;;;;;;6.80;50.20;;;;;;4933863;29;20017;-91
2023/01/29 00:59:44;;;;;;;;;;;6.80;50.10;;;;;;4951316;29;20050;-89
2023/01/29 01:04:54;;;;;;;;;;;6.80;50.20;;;;;;4951216;29;19961;-89
2023/01/29 01:07:19;;;;;;;;;;;6.80;50.20;;;;;;4951280;29;19958;-89
2023/01/29 01:12:29;;;;;;;;;;;6.80;50.20;;;;;;4951298;29;19933;-90
2023/01/29 01:14:55;;;;;;;;;;;6.80;50.10;;;;;;4950606;29;19910;-88
2023/01/29 01:17:20;;;;;;;;;;;6.80;50.10;;;;;;4950736;29;20055;-89
2023/01/29 01:19:46;;;;;;;;;;;6.80;49.90;;;;;;4950707;29;19914;-90
2023/01/29 01:22:11;;;;;;;;;;;6.70;49.90;;;;;;4933277;29;19993;-89
2023/01/29 01:24:37;;;;;;;;;;;6.70;49.90;;;;;;4933611;29;19937;-89
2023/01/29 01:27:03;;;;;;;;;;;6.70;49.80;;;;;;4933193;29;19927;-89
2023/01/29 01:29:29;;;;;;;;;;;6.70;49.70;;;;;;4950489;29;19911;-89
2023/01/29 01:31:55;;;;;;;;;;;6.60;49.70;;;;;;4934301;29;19923;-89
2023/01/29 01:34:22;;;;;;;;;;;6.50;49.50;;;;;;4935035;29;20185;-90
2023/01/29 01:36:50;;;;;;;;;;;6.40;49.70;;;;;;4952545;29;19985;-93
2023/01/29 01:39:16;;;;;;;;;;;6.50;49.90;;;;;;4952521;29;19911;-89
2023/01/29 01:41:41;;;;;;;;;;;6.50;49.90;;;;;;4934980;29;20437;-93
2023/01/29 01:44:07;;;;;;;;;;;6.40;49.90;;;;;;4952177;29;20035;-88
2023/01/29 01:46:35;;;;;;;;;;;6.50;50.00;;;;;;4951865;29;19923;-89
2023/01/29 01:49:07;;;;;;;;;;;6.40;50.10;;;;;;4934883;29;19918;-88
2023/01/29 01:51:36;;;;;;;;;;;6.40;50.00;;;;;;4952779;29;20346;-89
2023/01/29 01:54:05;;;;;;;;;;;6.40;50.00;;;;;;4952026;29;19914;-89
2023/01/29 01:56:37;;;;;;;;;;;6.40;50.10;;;;;;4951916;29;19926;-89
2023/01/29 01:59:04;;;;;;;;;;;6.40;50.20;;;;;;4951730;29;19910;-89
2023/01/29 02:01:30;;;;;;;;;;;6.40;50.20;;;;;;4951844;29;20008;-92
2023/01/29 02:12:04;;;;;;;;;;;6.40;50.10;;;;;;4958295;29;19919;-93
2023/01/29 02:14:30;;;;;;;;;;;6.40;50.20;;;;;;4942290;29;19914;-89
2023/01/29 02:16:56;;;;;;;;;;;6.40;50.20;;;;;;4957828;28;19949;-89
2023/01/29 02:19:22;;;;;;;;;;;6.50;50.10;;;;;;4954627;29;19918;-89
2023/01/29 02:22:06;;;;;;;;;;;6.50;50.20;;;;;;4958485;29;19925;-89
2023/01/29 02:24:52;;;;;;;;;;;6.50;50.30;;;;;;4942582;29;20373;-89
2023/01/29 02:27:19;;;;;;;;;;;6.50;50.20;;;;;;4957928;29;20006;-90
2023/01/29 02:29:55;;;;;;;;;;;6.50;50.20;;;;;;4956279;29;19954;-90
2023/01/29 02:32:21;;;;;;;;;;;6.50;50.30;;;;;;4953435;28;20366;-91
2023/01/29 02:37:44;;;;;;;;;;;6.60;50.20;;;;;;4955837;28;19990;-94
2023/01/29 02:40:13;;;;;;;;;;;6.60;50.30;;;;;;4949240;29;19930;-89
2023/01/29 02:42:43;;;;;;;;;;;6.70;50.20;;;;;;4942023;29;19950;-90
2023/01/29 02:45:11;;;;;;;;;;;6.70;50.10;;;;;;4957293;28;19942;-90
2023/01/29 02:47:48;;;;;;;;;;;6.70;50.00;;;;;;4940391;28;19923;-90
2023/01/29 02:50:20;;;;;;;;;;;6.70;50.00;;;;;;4957631;28;19917;-90
2023/01/29 02:52:56;;;;;;;;;;;6.70;50.00;;;;;;4940440;28;19993;-92
2023/01/29 02:55:29;;;;;;;;;;;6.70;50.10;;;;;;4956971;28;19923;-91
2023/01/29 02:57:59;;;;;;;;;;;6.60;49.90;;;;;;4938355;29;19927;-90
2023/01/29 03:00:26;;;;;;;;;;;6.60;50.00;;;;;;4938753;29;19981;-91
2023/01/29 03:03:21;;;;;;;;;;;6.60;49.90;;;;;;4938582;29;19923;-92
2023/01/29 03:05:52;;;;;;;;;;;6.60;49.80;;;;;;4926329;29;19910;-92
2023/01/29 03:08:20;;;;;;;;;;;6.60;49.70;;;;;;4956125;29;19918;-92
2023/01/29 03:10:49;;;;;;;;;;;6.60;49.80;;;;;;4956092;28;19982;-93
2023/01/29 03:13:27;;;;;;;;;;;6.60;49.80;;;;;;4952451;29;19919;-93
2023/01/29 03:16:00;;;;;;;;;;;6.60;49.80;;;;;;4955926;28;19915;-91
2023/01/29 03:18:29;;;;;;;;;;;6.60;50.00;;;;;;4935439;29;19919;-90
2023/01/29 03:20:57;;;;;;;;;;;6.70;49.90;;;;;;4952727;29;19911;-92
2023/01/29 03:34:33;;;;;;;;;;;6.80;50.00;;;;;;4893128;29;19922;-89
2023/01/29 03:37:02;;;;;;;;;;;6.80;49.90;;;;;;4878599;29;20014;-90
2023/01/29 03:39:28;;;;;;;;;;;6.90;49.80;;;;;;4951959;29;19998;-91
2023/01/29 03:42:12;;;;;;;;;;;6.90;49.60;;;;;;4952312;29;20013;-90
2023/01/29 03:44:59;;;;;;;;;;;6.80;49.60;;;;;;4935150;29;19910;-89
2023/01/29 03:47:31;;;;;;;;;;;6.90;49.60;;;;;;4934692;29;19926;-90
2023/01/29 03:50:11;;;;;;;;;;;6.90;49.80;;;;;;4919127;29;19927;-91
2023/01/29 03:52:36;;;;;;;;;;;6.80;49.60;;;;;;4952400;29;19929;-89
2023/01/29 03:55:10;;;;;;;;;;;6.80;49.40;;;;;;4952073;29;21260;-89
2023/01/29 03:57:38;;;;;;;;;;;6.80;49.40;;;;;;4952367;29;19930;-89
2023/01/29 04:00:16;;;;;;;;;;;6.80;49.40;;;;;;4934971;29;20363;-89
2023/01/29 04:02:46;;;;;;;;;;;6.80;49.40;;;;;;4952376;29;19919;-89
2023/01/29 04:05:19;;;;;;;;;;;6.80;49.40;;;;;;4952021;29;20386;-89
2023/01/29 04:07:45;;;;;;;;;;;6.80;49.40;;;;;;4951679;29;20386;-90
2023/01/29 04:10:14;;;;;;;;;;;6.70;49.30;;;;;;4952216;29;19969;-90
2023/01/29 04:12:44;;;;;;;;;;;6.70;49.30;;;;;;4934847;29;20070;-91
2023/01/29 04:15:14;;;;;;;;;;;6.70;49.30;;;;;;4934136;29;19966;-91
2023/01/29 04:17:41;;;;;;;;;;;6.70;49.30;;;;;;4934272;29;19977;-90
2023/01/29 04:20:07;;;;;;;;;;;6.70;49.30;;;;;;4951412;29;20009;-90
2023/01/29 04:22:34;;;;;;;;;;;6.70;49.30;;;;;;4947613;29;19954;-90
2023/01/29 04:25:07;;;;;;;;;;;6.70;49.40;;;;;;4934081;29;19946;-90
2023/01/29 04:27:56;;;;;;;;;;;6.70;49.40;;;;;;4934143;28;20001;-90
2023/01/29 04:30:25;;;;;;;;;;;6.80;49.50;;;;;;4934566;29;20367;-89
2023/01/29 04:33:01;;;;;;;;;;;6.70;49.30;;;;;;4951965;29;19946;-89
2023/01/29 04:35:27;;;;;;;;;;;6.80;49.40;;;;;;4947173;29;19993;-90
2023/01/29 04:38:11;;;;;;;;;;;6.80;49.50;;;;;;4951334;29;19973;-90
2023/01/29 04:40:42;;;;;;;;;;;6.80;49.50;;;;;;4934120;29;19938;-90
2023/01/29 04:43:20;;;;;;;;;;;6.90;49.50;;;;;;4951707;29;19914;-89
2023/01/29 04:46:05;;;;;;;;;;;6.90;49.50;;;;;;4933930;29;19999;-90
2023/01/29 04:48:39;;;;;;;;;;;7.00;49.50;;;;;;4933971;29;19986;-90
2023/01/29 04:51:11;;;;;;;;;;;7.00;49.40;;;;;;4951177;29;19914;-89
2023/01/29 04:53:37;;;;;;;;;;;7.00;49.30;;;;;;4950447;29;19958;-90
2023/01/29 04:56:02;;;;;;;;;;;7.00;49.20;;;;;;4950774;29;19938;-90
2023/01/29 04:58:34;;;;;;;;;;;7.00;49.20;;;;;;4933330;29;19922;-90
2023/01/29 05:01:03;;;;;;;;;;;6.90;49.20;;;;;;4951305;29;20021;-89
2023/01/29 05:03:30;;;;;;;;;;;6.90;49.30;;;;;;4935294;29;19922;-90
2023/01/29 05:05:56;;;;;;;;;;;6.90;49.30;;;;;;4940982;29;20377;-88
2023/01/29 05:08:24;;;;;;;;;;;7.00;49.30;;;;;;4947145;29;20021;-90
2023/01/29 05:10:50;;;;;;;;;;;7.00;49.40;;;;;;4934929;29;19918;-92
2023/01/29 05:13:16;;;;;;;;;;;7.00;49.40;;;;;;4954443;29;19930;-88
2023/01/29 05:15:55;;;;;;;;;;;7.00;49.50;;;;;;4952478;29;20270;-89
2023/01/29 05:18:21;;;;;;;;;;;7.00;49.30;;;;;;4952430;29;19931;-90
2023/01/29 05:20:47;;;;;;;;;;;7.00;49.20;;;;;;4952677;29;19925;-89
2023/01/29 05:23:16;;;;;;;;;;;7.00;49.10;;;;;;4948535;29;19915;-94
2023/01/29 05:25:42;;;;;;;;;;;6.90;49.20;;;;;;4951403;29;19918;-93
2023/01/29 05:28:15;;;;;;;;;;;6.90;49.20;;;;;;4950342;29;19920;-89
2023/01/29 05:30:42;;;;;;;;;;;6.90;49.20;;;;;;4934548;29;19958;-92
2023/01/29 05:33:12;;;;;;;;;;;6.90;49.30;;;;;;4947713;29;19915;-89
2023/01/29 05:35:38;;;;;;;;;;;6.80;49.30;;;;;;4933275;29;19942;-93
2023/01/29 05:38:04;;;;;;;;;;;6.90;49.50;;;;;;4936543;29;20403;-89
2023/01/29 05:40:29;;;;;;;;;;;6.90;49.50;;;;;;4950977;28;20041;-90
2023/01/29 05:42:55;;;;;;;;;;;6.90;49.60;;;;;;4917217;29;19922;-90
2023/01/29 05:45:20;;;;;;;;;;;6.90;49.60;;;;;;4933029;29;20099;-90
2023/01/29 05:47:46;;;;;;;;;;;6.90;49.60;;;;;;4931665;29;19943;-90
2023/01/29 05:50:12;;;;;;;;;;;6.90;49.60;;;;;;4951665;29;19922;-89
2023/01/29 05:52:38;;;;;;;;;;;7.00;49.70;;;;;;4937149;29;19915;-89
2023/01/29 05:55:03;;;;;;;;;;;6.90;49.50;;;;;;4932088;29;19919;-90
2023/01/29 05:57:29;;;;;;;;;;;6.90;49.60;;;;;;4945382;29;20321;-89
2023/01/29 05:59:55;;;;;;;;;;;6.90;49.60;;;;;;4940210;29;19976;-93
2023/01/29 06:02:21;;;;;;;;;;;6.80;49.80;;;;;;4916075;29;19915;-89
2023/01/29 06:04:46;;;;;;;;;;;6.80;49.80;;;;;;4933014;29;19930;-89
2023/01/29 06:07:12;;;;;;;;;;;6.90;49.80;;;;;;4931587;29;19931;-89
2023/01/29 06:09:37;;;;;;;;;;;6.90;49.80;;;;;;4935361;29;19918;-89
2023/01/29 06:12:05;;;;;;;;;;;6.90;49.90;;;;;;4951794;29;20030;-89
2023/01/29 06:14:30;;;;;;;;;;;6.90;49.90;;;;;;4950914;29;19922;-94
2023/01/29 06:16:56;;;;;;;;;;;6.90;50.00;;;;;;4932074;29;20604;-89
2023/01/29 06:19:21;;;;;;;;;;;6.90;49.90;;;;;;4934395;29;19966;-89
2023/01/29 06:21:47;;;;;;;;;;;6.90;49.90;;;;;;4932471;29;19958;-93
2023/01/29 06:24:13;;;;;;;;;;;6.90;50.00;;;;;;4950354;29;20017;-90
2023/01/29 06:26:40;;;;;;;;;;;6.90;50.10;;;;;;4929397;29;19936;-88
2023/01/29 06:29:06;;;;;;;;;;;6.90;50.20;;;;;;4932603;29;20334;-90
2023/01/29 06:31:32;;;;;;;;;;;7.00;50.20;;;;;;4932480;29;19918;-89
2023/01/29 06:33:57;;;;;;;;;;;7.00;50.20;;;;;;4914627;29;19978;-87
2023/01/29 06:36:23;;;;;;;;;;;7.00;50.20;;;;;;4932083;29;19915;-93
2023/01/29 06:38:48;;;;;;;;;;;7.00;50.30;;;;;;4951033;29;19929;-93
2023/01/29 06:41:18;;;;;;;;;;;7.00;50.20;;;;;;4934018;29;19918;-89
2023/01/29 06:43:44;;;;;;;;;;;7.00;50.30;;;;;;4933705;29;19923;-90
2023/01/29 06:46:09;;;;;;;;;;;6.90;50.10;;;;;;4951536;29;19910;-92
2023/01/29 06:48:35;;;;;;;;;;;6.90;50.20;;;;;;4918430;29;20362;-88
2023/01/29 06:51:01;;;;;;;;;;;7.00;50.30;;;;;;4932424;29;20014;-88
2023/01/29 06:53:27;;;;;;;;;;;6.90;50.30;;;;;;4937267;29;19930;-94
2023/01/29 06:55:53;;;;;;;;;;;6.90;50.40;;;;;;4918425;29;19911;-91
2023/01/29 06:58:19;;;;;;;;;;;7.00;50.40;;;;;;4936231;29;19931;-90
2023/01/29 07:00:44;;;;;;;;;;;7.00;50.40;;;;;;4935266;29;19911;-90
2023/01/29 07:03:10;;;;;;;;;;;7.00;50.30;;;;;;4948432;29;20365;-89
2023/01/29 07:05:36;;;;;;;;;;;6.90;50.10;;;;;;4954586;29;19919;-90
2023/01/29 07:08:02;;;;;;;;;;;6.90;50.20;;;;;;4935430;29;19918;-90
2023/01/29 07:10:28;;;;;;;;;;;6.90;50.30;;;;;;4954563;29;20285;-90
2023/01/29 07:12:53;;;;;;;;;;;6.90;50.30;;;;;;4927560;29;19915;-91
2023/01/29 07:15:20;;;;;;;;;;;6.80;50.30;;;;;;4952676;29;19922;-89
2023/01/29 07:18:11;;;;;;;;;;;6.80;50.40;;;;;;4945911;29;20017;-90
2023/01/29 07:20:37;;;;;;;;;;;6.80;50.40;;;;;;4953259;29;19961;-90
2023/01/29 07:23:02;;;;;;;;;;;6.80;50.40;;;;;;4936876;29;19914;-89
2023/01/29 07:25:29;;;;;;;;;;;6.80;50.40;;;;;;4936485;29;19922;-93
2023/01/29 07:27:54;;;;;;;;;;;6.90;50.40;;;;;;4953130;29;20289;-93
2023/01/29 07:30:20;;;;;;;;;;;6.90;50.30;;;;;;4951660;29;20318;-93
2023/01/29 07:32:45;;;;;;;;;;;6.80;50.20;;;;;;4918230;29;20034;-89
2023/01/29 07:35:11;;;;;;;;;;;6.90;50.10;;;;;;4934600;29;20425;-89
2023/01/29 07:37:36;;;;;;;;;;;6.90;50.20;;;;;;4953925;29;20609;-89
2023/01/29 07:40:04;;;;;;;;;;;6.90;50.10;;;;;;4954267;28;19915;-93
2023/01/29 07:42:29;;;;;;;;;;;6.90;50.20;;;;;;4936934;29;20470;-89
2023/01/29 07:44:55;;;;;;;;;;;6.90;50.10;;;;;;4937228;29;20006;-88
2023/01/29 07:47:20;;;;;;;;;;;6.80;50.10;;;;;;4939385;29;19926;-91
2023/01/29 07:49:46;;;;;;;;;;;6.90;50.30;;;;;;4935830;29;20341;-93
2023/01/29 07:52:12;;;;;;;;;;;7.00;50.20;;;;;;4918454;29;19915;-88
2023/01/29 07:54:37;;;;;;;;;;;7.00;50.00;;;;;;4941456;29;20278;-93
2023/01/29 07:57:03;;;;;;;;;;;7.00;50.10;;;;;;4936286;29;19965;-90
2023/01/29 07:59:28;;;;;;;;;;;7.00;50.20;;;;;;4952164;29;19965;-89
2023/01/29 08:01:54;;;;;;;;;;;7.00;49.90;;;;;;4936168;29;19919;-89
2023/01/29 08:04:20;;;;;;;;;;;7.00;49.90;;;;;;4951375;28;20433;-88
2023/01/29 08:06:46;;;;;;;;;;;7.00;50.00;;;;;;4934722;29;19921;-90
2023/01/29 08:09:12;;;;;;;;;;;7.10;50.10;;;;;;4939858;29;20017;-88
2023/01/29 08:11:37;;;;;;;;;;;7.10;50.10;;;;;;4941271;29;20652;-90
2023/01/29 08:14:03;;;;;;;;;;;7.20;50.00;;;;;;4948665;29;20336;-91
2023/01/29 08:16:28;;;;;;;;;;;7.20;49.90;;;;;;4939925;29;20452;-88
2023/01/29 08:18:54;;;;;;;;;;;7.30;49.90;;;;;;4945495;29;19965;-94
2023/01/29 08:21:20;;;;;;;;;;;7.30;49.80;;;;;;4926576;29;20013;-89
2023/01/29 08:23:45;;;;;;;;;;;7.40;49.70;;;;;;4944905;29;19919;-90
2023/01/29 08:26:11;;;;;;;;;;;7.40;49.50;;;;;;4943822;29;19915;-92
2023/01/29 08:28:37;;;;;;;;;;;7.50;49.40;;;;;;4945732;29;20017;-89
2023/01/29 08:31:03;;;;;;;;;;;7.50;49.30;;;;;;4942238;29;19910;-89
2023/01/29 08:33:29;;;;;;;;;;;7.50;49.30;;;;;;4943930;29;19933;-91
2023/01/29 08:35:54;;;;;;;;;;;7.60;49.20;;;;;;4946810;29;19918;-90
2023/01/29 08:38:20;;;;;;;;;;;7.70;49.20;;;;;;4934243;29;19927;-94
2023/01/29 08:40:50;;;;;;;;;;;7.70;49.10;;;;;;4926148;29;19925;-94
2023/01/29 08:43:16;;;;;;;;;;;7.70;48.90;;;;;;4950453;29;19923;-92
2023/01/29 08:45:42;;;;;;;;;;;7.80;48.80;;;;;;4953160;29;19914;-91
2023/01/29 08:48:08;;;;;;;;;;;7.80;48.90;;;;;;4948754;29;20377;-89
2023/01/29 08:50:34;;;;;;;;;;;7.80;48.80;;;;;;4943421;29;19922;-89
2023/01/29 08:53:00;;;;;;;;;;;7.80;48.70;;;;;;4948644;29;19914;-89
2023/01/29 08:55:26;;;;;;;;;;;7.80;48.70;;;;;;4937800;29;19947;-90
2023/01/29 08:57:53;;;;;;;;;;;7.90;48.50;;;;;;4944510;29;19926;-91
2023/01/29 09:00:19;;;;;;;;;;;7.90;48.50;;;;;;4922058;29;19923;-93
2023/01/29 09:02:44;;;;;;;;;;;7.90;48.40;;;;;;4934240;29;20273;-89
2023/01/29 09:05:10;;;;;;;;;;;7.90;48.40;;;;;;4933857;29;19922;-91
2023/01/29 09:07:35;;;;;;;;;;;8.00;48.50;;;;;;4938345;29;20322;-89
2023/01/29 09:10:01;;;;;;;;;;;8.10;48.30;;;;;;4947269;29;19985;-90
2023/01/29 09:12:27;;;;;;;;;;;8.20;48.30;;;;;;4933879;29;19922;-94
2023/01/29 09:14:53;;;;;;;;;;;8.30;48.30;;;;;;4932408;29;19970;-94
2023/01/29 09:17:18;;;;;;;;;;;8.40;48.20;;;;;;4934649;29;20009;-89
2023/01/29 09:19:44;;;;;;;;;;;8.50;47.80;;;;;;4950220;29;20425;-90
2023/01/29 09:22:09;;;;;;;;;;;8.60;47.50;;;;;;4951612;29;19919;-90
2023/01/29 09:24:35;;;;;;;;;;;8.60;47.40;;;;;;4950692;29;19949;-89
2023/01/29 09:27:00;;;;;;;;;;;8.60;47.20;;;;;;4951248;29;19924;-89
2023/01/29 09:29:26;;;;;;;;;;;8.50;47.20;;;;;;4950943;29;19914;-90
2023/01/29 09:31:53;;;;;;;;;;;8.50;47.20;;;;;;4952022;29;19933;-94
2023/01/29 09:34:19;;;;;;;;;;;8.60;47.30;;;;;;4932956;29;19927;-94
2023/01/29 09:36:45;;;;;;;;;;;8.60;47.10;;;;;;4952025;29;19926;-90
2023/01/29 09:39:10;;;;;;;;;;;8.60;47.20;;;;;;4933195;29;19918;-94
2023/01/29 09:41:55;;;;;;;;;;;8.70;47.10;;;;;;4950257;28;19918;-89
2023/01/29 09:44:20;;;;;;;;;;;8.70;47.20;;;;;;4949473;29;20011;-91
2023/01/29 09:46:47;;;;;;;;;;;8.80;47.00;;;;;;4940623;29;20009;-90
2023/01/29 09:49:28;;;;;;;;;;;8.90;47.00;;;;;;4949867;29;20374;-90
2023/01/29 09:52:06;;;;;;;;;;;9.00;47.00;;;;;;4946253;29;20464;-90
2023/01/29 09:54:41;;;;;;;;;;;9.10;47.00;;;;;;4949179;29;20438;-94
2023/01/29 09:57:09;;;;;;;;;;;9.20;46.90;;;;;;4951180;29;20025;-87
2023/01/29 09:59:35;;;;;;;;;;;9.20;46.90;;;;;;4919944;29;19919;-90
2023/01/29 10:02:08;;;;;;;;;;;9.30;46.50;;;;;;4937478;29;20378;-94
2023/01/29 10:05:09;;;;;;;;;;;9.30;46.60;;;;;;4947324;29;20263;-89
2023/01/29 10:07:56;;;;;;;;;;;9.30;46.40;;;;;;4910268;29;19946;-90
2023/01/29 10:10:35;;;;;;;;;;;9.30;46.20;;;;;;4912729;29;19930;-90
2023/01/29 10:13:15;;;;;;;;;;;9.40;46.20;;;;;;4932372;29;19919;-90
2023/01/29 10:15:59;;;;;;;;;;;9.30;45.80;;;;;;4933445;29;20375;-89
2023/01/29 10:18:36;;;;;;;;;;;9.30;45.90;;;;;;4932743;29;19926;-90
2023/01/29 10:21:20;;;;;;;;;;;9.40;46.20;;;;;;4932674;29;19914;-93
2023/01/29 10:23:52;;;;;;;;;;;9.50;46.10;;;;;;4948941;29;20289;-91
2023/01/29 10:26:19;;;;;;;;;;;9.70;46.40;;;;;;4951817;28;19921;-89
2023/01/29 10:28:48;;;;;;;;;;;9.90;46.50;;;;;;4937311;29;19954;-90
2023/01/29 10:31:19;;;;;;;;;;;10.10;46.10;;;;;;4955911;29;19922;-89
2023/01/29 10:33:56;;;;;;;;;;;10.20;45.60;;;;;;4936913;29;19981;-90
2023/01/29 10:36:25;;;;;;;;;;;10.30;45.30;;;;;;4935710;29;20246;-89
2023/01/29 10:38:51;;;;;;;;;;;10.40;45.00;;;;;;4936482;29;20411;-90
2023/01/29 10:41:21;;;;;;;;;;;10.50;44.60;;;;;;4955068;29;20361;-89
2023/01/29 10:44:05;;;;;;;;;;;10.40;44.40;;;;;;4949639;29;19919;-90
2023/01/29 10:46:45;;;;;;;;;;;10.40;44.30;;;;;;4936448;29;19914;-89
2023/01/29 10:49:37;;;;;;;;;;;10.30;44.10;;;;;;4935862;29;20005;-90
2023/01/29 10:52:12;;;;;;;;;;;10.20;44.20;;;;;;4924186;29;20366;-90
2023/01/29 10:54:43;;;;;;;;;;;10.10;44.40;;;;;;4935291;29;19973;-89
2023/01/29 10:57:27;;;;;;;;;;;10.10;44.00;;;;;;4951252;29;19923;-91
2023/01/29 11:00:10;;;;;;;;;;;10.00;44.30;;;;;;4955623;29;19919;-90
2023/01/29 11:02:35;;;;;;;;;;;10.00;44.70;;;;;;4926069;29;19919;-90
2023/01/29 11:05:01;;;;;;;;;;;10.00;44.70;;;;;;4936719;29;20398;-93
2023/01/29 11:07:27;;;;;;;;;;;10.00;44.90;;;;;;4935340;29;20322;-91
2023/01/29 11:09:59;;;;;;;;;;;10.00;45.20;;;;;;4947772;29;20330;-89
2023/01/29 11:12:29;;;;;;;;;;;10.10;45.00;;;;;;4940500;29;20450;-89
2023/01/29 11:15:02;;;;;;;;;;;10.00;44.70;;;;;;4945497;29;20366;-90
2023/01/29 11:17:27;;;;;;;;;;;10.00;44.70;;;;;;4934485;29;19926;-91
2023/01/29 11:19:56;;;;;;;;;;;9.90;44.70;;;;;;4937886;29;19914;-89
2023/01/29 11:22:26;;;;;;;;;;;9.90;44.80;;;;;;4955502;29;19925;-88
2023/01/29 11:25:10;;;;;;;;;;;9.90;44.70;;;;;;4953966;29;19919;-90
2023/01/29 11:27:41;;;;;;;;;;;9.90;44.60;;;;;;4932409;29;19949;-90
2023/01/29 11:30:16;;;;;;;;;;;9.80;44.80;;;;;;4955979;29;19974;-90
2023/01/29 11:32:42;;;;;;;;;;;9.90;45.10;;;;;;4953015;29;20317;-93
2023/01/29 11:35:07;;;;;;;;;;;9.90;45.10;;;;;;4936966;29;19918;-90
2023/01/29 11:37:37;;;;;;;;;;;10.00;45.10;;;;;;4943950;29;19933;-91
2023/01/29 11:40:29;;;;;;;;;;;10.00;45.10;;;;;;4945773;29;19918;-93
2023/01/29 11:42:55;;;;;;;;;;;10.00;45.20;;;;;;4927800;28;19973;-93
2023/01/29 11:45:32;;;;;;;;;;;10.00;45.10;;;;;;4934846;29;20402;-92
2023/01/29 11:47:58;;;;;;;;;;;10.00;44.90;;;;;;4952147;29;19918;-93
2023/01/29 11:50:29;;;;;;;;;;;10.00;44.90;;;;;;4932065;29;19918;-93
2023/01/29 11:52:55;;;;;;;;;;;10.00;45.30;;;;;;4950006;29;19919;-94
2023/01/29 11:55:22;;;;;;;;;;;10.10;45.30;;;;;;4931792;29;20433;-93
2023/01/29 11:57:50;;;;;;;;;;;10.00;44.90;;;;;;4931935;29;19938;-92
2023/01/29 12:00:18;;;;;;;;;;;10.10;45.00;;;;;;4930806;29;19932;-94
2023/01/29 12:02:45;;;;;;;;;;;10.10;45.30;;;;;;4932088;29;20013;-93
2023/01/29 12:05:15;;;;;;;;;;;10.20;45.40;;;;;;4931912;29;20013;-93
2023/01/29 12:07:42;;;;;;;;;;;10.20;45.30;;;;;;4949526;29;19922;-94
2023/01/29 12:10:27;;;;;;;;;;;10.30;45.00;;;;;;4949296;29;20367;-93
2023/01/29 12:13:02;;;;;;;;;;;10.30;45.30;;;;;;4942951;29;19918;-93
2023/01/29 12:15:32;;;;;;;;;;;10.30;45.70;;;;;;4950836;29;20009;-93
2023/01/29 12:17:57;;;;;;;;;;;10.40;45.20;;;;;;4930573;29;19933;-94
2023/01/29 12:20:27;;;;;;;;;;;10.40;45.00;;;;;;4932389;29;19923;-94
2023/01/29 12:22:56;;;;;;;;;;;10.40;45.20;;;;;;4927289;29;19924;-93
2023/01/29 12:25:24;;;;;;;;;;;10.40;45.20;;;;;;4931789;29;20623;-95
2023/01/29 12:28:09;;;;;;;;;;;10.50;45.10;;;;;;4948650;29;19961;-94
2023/01/29 12:30:43;;;;;;;;;;;10.50;45.00;;;;;;4933252;29;19918;-94
2023/01/29 12:33:13;;;;;;;;;;;10.50;45.20;;;;;;4951616;29;19938;-94
2023/01/29 12:35:50;;;;;;;;;;;10.50;44.80;;;;;;4951327;29;20013;-93
2023/01/29 12:38:22;;;;;;;;;;;10.50;44.90;;;;;;4933291;29;19930;-94
2023/01/29 12:40:57;;;;;;;;;;;10.50;44.80;;;;;;4950687;28;19973;-93
2023/01/29 12:43:30;;;;;;;;;;;10.60;45.00;;;;;;4930288;29;20021;-94
2023/01/29 12:45:56;;;;;;;;;;;10.60;44.80;;;;;;4931637;29;19966;-95
2023/01/29 12:48:26;;;;;;;;;;;10.60;45.00;;;;;;4932132;29;20324;-91
2023/01/29 12:50:54;;;;;;;;;;;10.70;45.00;;;;;;4950921;28;19925;-93
2023/01/29 12:53:32;;;;;;;;;;;10.70;45.10;;;;;;4951299;29;20569;-92
2023/01/29 12:56:00;;;;;;;;;;;10.80;44.80;;;;;;4922416;29;20331;-94
2023/01/29 12:58:30;;;;;;;;;;;10.80;44.50;;;;;;4954830;29;19954;-93
2023/01/29 13:00:59;;;;;;;;;;;10.80;44.60;;;;;;4955545;29;19914;-93
2023/01/29 13:03:44;;;;;;;;;;;10.80;44.50;;;;;;4934199;29;20360;-93
2023/01/29 13:06:18;;;;;;;;;;;10.70;44.40;;;;;;4951622;29;19944;-94
2023/01/29 13:08:48;;;;;;;;;;;10.70;44.50;;;;;;4937439;29;19922;-92
2023/01/29 13:11:27;;;;;;;;;;;10.70;44.50;;;;;;4936472;29;20379;-93
2023/01/29 13:13:55;;;;;;;;;;;10.70;44.50;;;;;;4934976;29;19922;-94
2023/01/29 13:16:24;;;;;;;;;;;10.70;44.50;;;;;;4946652;28;20006;-95
2023/01/29 13:18:54;;;;;;;;;;;10.70;44.80;;;;;;4952997;28;20320;-93
2023/01/29 13:21:35;;;;;;;;;;;10.70;44.60;;;;;;4958660;28;19945;-94
2023/01/29 13:24:03;;;;;;;;;;;10.60;44.40;;;;;;4929973;29;19930;-94
2023/01/29 13:26:30;;;;;;;;;;;10.60;44.70;;;;;;4925922;28;20168;-90
2023/01/29 13:28:56;;;;;;;;;;;10.60;44.70;;;;;;4944955;28;19923;-89
2023/01/29 13:31:22;;;;;;;;;;;10.70;44.40;;;;;;4929372;29;20350;-95
2023/01/29 13:33:58;;;;;;;;;;;10.70;44.40;;;;;;4937978;29;19969;-93
2023/01/29 13:36:26;;;;;;;;;;;10.60;44.20;;;;;;4959845;28;19918;-89
2023/01/29 13:38:58;;;;;;;;;;;10.50;44.20;;;;;;4938094;28;20074;-88
2023/01/29 13:41:30;;;;;;;;;;;10.50;44.20;;;;;;4944422;29;19939;-89
2023/01/29 13:47:09;;;;;;;;;;;10.40;44.20;;;;;;4925972;29;19919;-92
2023/01/29 13:49:39;;;;;;;;;;;10.40;44.30;;;;;;4931153;29;19926;-92
2023/01/29 13:55:35;;;;;;;;;;;;;;;;;;;;;
2023/01/29 13:58:42;;;;;;;;;;;10.40;44.60;;;;;;4962386;28;19930;-90
2023/01/29 14:15:05;;;;;;;;;;;10.20;45.00;;;;;;4912045;28;19934;-91
2023/01/29 14:29:21;;;;;;;;;;;;;;;;;;;;;
2023/01/29 15:21:35;;;;;;;;;;;9.80;45.30;;;;;;4934079;29;19969;-94
2023/01/29 15:30:14;;;;;;;;;;;9.70;45.60;;;;;;4954880;28;19985;-89
2023/01/29 15:39:50;;;;;;;;;;;;;;;;;;;;;
2023/01/29 15:48:33;;;;;;;;;;;;;;;;;;;;;
2023/01/29 16:06:20;;;;;;;;;;;9.40;46.00;;;;;;4954776;28;21389;-92
2023/01/29 16:09:33;;;;;;;;;;;;;;;;;;;;;
2023/01/29 16:18:57;;;;;;;;;;;9.20;46.40;;;;;;4935411;28;19930;-93
2023/01/29 16:21:38;;;;;;;;;;;;;;;;;;;;;
2023/01/29 16:25:05;;;;;;;;;;;9.10;46.60;;;;;;4949231;28;19922;-88
2023/01/29 16:36:09;;;;;;;;;;;;;;;;;;;;;
2023/01/29 16:49:18;;;;;;;;;;;8.80;47.20;;;;;;5161182;23;20012;-93
2023/01/29 16:58:12;;;;;;;;;;;9.00;47.30;;;;;;4934276;28;20033;-92
2023/01/29 17:01:14;;;;;;;;;;;8.80;47.30;;;;;;4944822;28;20369;-94
2023/01/29 17:03:59;;;;;;;;;;;8.90;47.20;;;;;;4968336;28;19926;-91
2023/01/29 17:06:25;;;;;;;;;;;8.90;47.30;;;;;;4976401;28;19945;-93
2023/01/29 17:09:03;;;;;;;;;;;8.90;47.30;;;;;;4976761;28;19922;-91
2023/01/29 17:11:40;;;;;;;;;;;8.90;47.40;;;;;;4975624;28;20021;-93
2023/01/29 17:14:24;;;;;;;;;;;8.90;47.30;;;;;;4975860;28;19926;-93
2023/01/29 17:17:01;;;;;;;;;;;9.00;47.30;;;;;;4975198;28;19918;-91
2023/01/29 17:20:06;;;;;;;;;;;9.00;47.20;;;;;;4973926;28;19917;-91
2023/01/29 17:22:35;;;;;;;;;;;9.00;47.30;;;;;;4973147;28;19945;-90
2023/01/29 17:34:00;;;;;;;;;;;9.00;47.30;;;;;;4975004;28;19921;-91
2023/01/29 17:36:37;;;;;;;;;;;9.00;47.30;;;;;;4967571;28;19926;-91
2023/01/29 17:39:09;;;;;;;;;;;9.00;47.30;;;;;;4948762;28;19980;-89
2023/01/29 17:41:36;;;;;;;;;;;9.00;47.40;;;;;;4949342;28;20376;-92
2023/01/29 17:44:08;;;;;;;;;;;9.00;47.50;;;;;;4950823;28;20392;-88
2023/01/29 17:46:33;;;;;;;;;;;9.00;47.60;;;;;;4948770;28;20041;-90
2023/01/29 17:49:03;;;;;;;;;;;9.00;47.70;;;;;;4951697;28;20081;-91
2023/01/29 17:51:28;;;;;;;;;;;9.00;47.90;;;;;;4953213;28;20037;-90
2023/01/29 17:53:54;;;;;;;;;;;8.90;48.10;;;;;;4952025;28;20528;-96
2023/01/29 17:56:31;;;;;;;;;;;8.90;48.30;;;;;;4950935;28;19922;-91
2023/01/29 17:58:57;;;;;;;;;;;8.80;48.60;;;;;;4950741;28;19933;-90